createdAt,value
2019-04-14T00:00:46.864Z,123.37
2019-04-14T00:03:23.749Z,123.97
2019-04-14T00:05:58.276Z,138.63
2019-04-14T00:08:28.368Z,139.27
2019-04-14T00:10:59.306Z,134.83
2019-04-14T00:13:28.688Z,121.97
2019-04-14T00:15:58.855Z,124.40
2019-04-14T00:18:29.353Z,123.50
2019-04-14T00:20:59.771Z,111.47
2019-04-14T00:23:30.390Z,119.50
2019-04-14T00:26:25.437Z,115.67
2019-04-14T00:28:55.625Z,117.77
2019-04-14T00:31:26.173Z,124.37
2019-04-14T00:33:58.489Z,114.87
2019-04-14T00:36:35.242Z,115.67
2019-04-14T00:39:07.669Z,113.20
2019-04-14T00:41:44.850Z,121.87
2019-04-14T00:44:14.661Z,112.90
2019-04-14T00:46:58.178Z,116.63
2019-04-14T00:49:28.908Z,107.03
2019-04-14T00:51:59.323Z,113.27
2019-04-14T00:54:28.627Z,111.63
2019-04-14T00:56:58.473Z,113.53
2019-04-14T00:59:28.957Z,103.43
2019-04-14T01:01:59.166Z,108.17
2019-04-14T01:04:29.467Z,97.80
2019-04-14T01:07:00.064Z,91.57
2019-04-14T01:09:30.436Z,85.80
2019-04-14T01:12:01.812Z,91.37
2019-04-14T01:14:32.022Z,90.83
2019-04-14T01:17:02.639Z,93.53
2019-04-14T01:19:33.095Z,89.40
2019-04-14T01:22:03.202Z,95.73
2019-04-14T01:24:34.483Z,99.67
2019-04-14T01:27:04.013Z,93.63
2019-04-14T01:29:34.153Z,99.07
2019-04-14T01:32:04.557Z,96.10
2019-04-14T01:34:34.752Z,97.03
2019-04-14T01:37:05.162Z,96.23
2019-04-14T01:39:35.055Z,98.67
2019-04-14T01:42:04.943Z,94.63
2019-04-14T01:44:35.175Z,91.00
2019-04-14T01:47:05.302Z,103.27
2019-04-14T01:49:35.462Z,96.70
2019-04-14T01:52:06.670Z,93.43
2019-04-14T01:54:38.563Z,86.40
2019-04-14T01:57:19.971Z,96.43
2019-04-14T01:59:50.327Z,92.73
2019-04-14T02:02:22.626Z,89.57
2019-04-14T02:04:52.903Z,94.90
2019-04-14T02:07:25.636Z,94.47
2019-04-14T02:09:55.335Z,98.60
2019-04-14T02:12:25.634Z,89.33
2019-04-14T02:14:56.198Z,82.53
2019-04-14T02:17:26.355Z,88.40
2019-04-14T02:19:56.758Z,87.63
2019-04-14T02:22:26.664Z,83.10
2019-04-14T02:24:57.083Z,93.60
2019-04-14T02:27:27.416Z,100.00
2019-04-14T02:29:58.114Z,99.20
2019-04-14T02:32:57.484Z,96.50
2019-04-14T02:35:28.389Z,98.60
2019-04-14T02:38:03.433Z,98.53
2019-04-14T02:40:41.114Z,105.03
2019-04-14T02:43:04.337Z,107.63
2019-04-14T02:45:35.154Z,100.50
2019-04-14T02:48:20.444Z,103.23
2019-04-14T02:50:30.331Z,95.07
2019-04-14T02:53:09.070Z,104.27
2019-04-14T02:55:42.210Z,106.30
2019-04-14T02:58:10.208Z,105.57
2019-04-14T03:03:10.222Z,105.70
2019-04-14T03:05:44.422Z,105.90
2019-04-14T03:08:08.294Z,108.27
2019-04-14T03:10:40.440Z,103.47
2019-04-14T03:13:15.070Z,109.23
2019-04-14T03:15:53.776Z,103.27
2019-04-14T03:21:03.594Z,102.50
2019-04-14T03:23:46.360Z,110.30
2019-04-14T03:26:04.793Z,109.67
2019-04-14T03:31:37.505Z,103.87
2019-04-14T03:37:21.965Z,98.87
2019-04-14T03:41:27.370Z,106.10
2019-04-14T03:43:46.036Z,101.13
2019-04-14T03:46:25.461Z,97.67
2019-04-14T03:51:34.726Z,103.90
2019-04-14T03:53:53.145Z,100.57
2019-04-14T03:56:07.709Z,93.00
2019-04-14T03:58:35.720Z,89.07
2019-04-14T04:01:06.177Z,87.20
2019-04-14T04:03:36.751Z,91.87
2019-04-14T04:06:07.465Z,85.23
2019-04-14T04:08:37.704Z,86.07
2019-04-14T04:11:06.847Z,85.93
2019-04-14T04:13:36.614Z,76.63
2019-04-14T04:16:13.822Z,77.57
2019-04-14T04:18:51.255Z,83.77
2019-04-14T04:21:18.745Z,74.43
2019-04-14T04:23:53.299Z,82.70
2019-04-14T04:26:40.646Z,78.77
2019-04-14T04:29:17.911Z,77.27
2019-04-14T04:31:58.889Z,70.50
2019-04-14T04:34:33.797Z,74.27
2019-04-14T04:37:08.285Z,72.73
2019-04-14T04:39:43.214Z,74.17
2019-04-14T04:42:13.319Z,67.53
2019-04-14T04:44:42.667Z,76.80
2019-04-14T04:47:12.370Z,72.80
2019-04-14T04:49:42.668Z,76.97
2019-04-14T04:52:13.982Z,73.97
2019-04-14T04:54:42.943Z,76.40
2019-04-14T04:57:13.186Z,70.63
2019-04-14T04:59:43.058Z,67.60
2019-04-14T05:02:13.454Z,68.53
2019-04-14T05:04:43.827Z,72.33
2019-04-14T05:07:14.382Z,63.50
2019-04-14T05:09:49.100Z,65.27
2019-04-14T05:12:19.867Z,64.63
2019-04-14T05:15:03.623Z,68.03
2019-04-14T05:17:40.950Z,57.83
2019-04-14T05:20:11.387Z,60.50
2019-04-14T05:22:41.769Z,55.17
2019-04-14T05:25:12.369Z,53.37
2019-04-14T05:27:41.645Z,52.70
2019-04-14T05:30:13.196Z,51.93
2019-04-14T05:32:43.443Z,54.43
2019-04-14T05:35:14.040Z,53.73
2019-04-14T05:37:44.348Z,50.73
2019-04-14T05:40:14.566Z,50.97
2019-04-14T05:42:45.020Z,48.80
2019-04-14T05:45:15.460Z,48.43
2019-04-14T05:47:45.740Z,52.00
2019-04-14T05:50:15.867Z,50.17
2019-04-14T05:52:45.027Z,49.80
2019-04-14T05:55:14.205Z,48.90
2019-04-14T05:57:43.811Z,48.63
2019-04-14T06:00:16.650Z,49.13
2019-04-14T06:02:46.716Z,47.20
2019-04-14T06:05:16.588Z,48.60
2019-04-14T06:07:45.895Z,44.47
2019-04-14T06:10:15.175Z,47.40
2019-04-14T06:12:44.458Z,46.50
2019-04-14T06:15:14.086Z,48.53
2019-04-14T06:17:43.273Z,47.23
2019-04-14T06:20:12.834Z,48.40
2019-04-14T06:22:45.637Z,51.90
2019-04-14T06:25:14.843Z,48.83
2019-04-14T06:27:44.322Z,50.70
2019-04-14T06:30:30.585Z,51.30
2019-04-14T06:33:02.656Z,52.60
2019-04-14T06:35:39.637Z,47.63
2019-04-14T06:38:10.437Z,52.93
2019-04-14T06:40:41.214Z,57.63
2019-04-14T06:43:11.688Z,48.70
2019-04-14T06:45:41.061Z,44.53
2019-04-14T06:48:10.189Z,47.37
2019-04-14T06:50:39.321Z,46.20
2019-04-14T06:53:08.538Z,45.10
2019-04-14T06:55:37.768Z,45.83
2019-04-14T06:58:06.958Z,42.50
2019-04-14T07:00:36.201Z,43.83
2019-04-14T07:03:05.603Z,43.30
2019-04-14T07:05:34.861Z,41.73
2019-04-14T07:08:04.104Z,45.03
2019-04-14T07:10:33.242Z,47.57
2019-04-14T07:13:02.480Z,45.30
2019-04-14T07:15:31.705Z,47.33
2019-04-14T07:18:00.841Z,43.77
2019-04-14T07:20:29.970Z,50.33
2019-04-14T07:23:00.785Z,49.07
2019-04-14T07:25:29.983Z,47.03
2019-04-14T07:27:59.965Z,46.50
2019-04-14T07:30:43.215Z,41.30
2019-04-14T07:33:30.821Z,42.87
2019-04-14T07:36:17.800Z,47.00
2019-04-14T07:38:50.081Z,44.87
2019-04-14T07:41:20.935Z,47.37
2019-04-14T07:43:57.128Z,50.77
2019-04-14T07:46:41.412Z,50.03
2019-04-14T07:49:28.430Z,45.90
2019-04-14T07:52:08.204Z,45.30
2019-04-14T07:54:41.413Z,136.53
2019-04-14T07:57:30.502Z,50.53
2019-04-14T08:00:01.324Z,44.97
2019-04-14T08:02:37.917Z,42.40
2019-04-14T08:05:09.112Z,41.60
2019-04-14T08:07:39.701Z,42.23
2019-04-14T08:10:10.005Z,37.47
2019-04-14T08:12:39.182Z,42.43
2019-04-14T08:15:08.505Z,41.33
2019-04-14T08:17:37.727Z,39.23
2019-04-14T08:20:07.870Z,38.83
2019-04-14T08:22:37.032Z,36.70
2019-04-14T08:25:07.241Z,36.57
2019-04-14T08:27:36.541Z,39.93
2019-04-14T08:30:09.051Z,38.50
2019-04-14T08:32:38.250Z,39.93
2019-04-14T08:35:07.905Z,37.53
2019-04-14T08:37:37.265Z,38.07
2019-04-14T08:40:07.568Z,37.03
2019-04-14T08:42:50.552Z,37.13
2019-04-14T08:45:33.678Z,35.87
2019-04-14T08:48:10.503Z,35.43
2019-04-14T08:50:44.194Z,34.43
2019-04-14T08:53:20.836Z,31.73
2019-04-14T08:55:51.635Z,35.03
2019-04-14T08:58:28.411Z,39.17
2019-04-14T09:01:02.031Z,35.50
2019-04-14T09:03:38.603Z,31.87
2019-04-14T09:06:09.457Z,32.47
2019-04-14T09:08:40.281Z,32.07
2019-04-14T09:11:11.161Z,28.33
2019-04-14T09:13:43.447Z,32.50
2019-04-14T09:16:12.795Z,30.40
2019-04-14T09:18:43.522Z,32.67
2019-04-14T09:21:12.740Z,29.67
2019-04-14T09:23:46.074Z,25.53
2019-04-14T09:26:15.318Z,28.07
2019-04-14T09:28:46.478Z,28.53
2019-04-14T09:31:16.929Z,29.80
2019-04-14T09:33:47.912Z,29.73
2019-04-14T09:36:17.153Z,30.93
2019-04-14T09:38:46.138Z,29.87
2019-04-14T09:41:16.974Z,31.13
2019-04-14T09:43:46.178Z,28.97
2019-04-14T09:46:15.417Z,30.83
2019-04-14T09:48:46.327Z,30.27
2019-04-14T09:51:16.931Z,31.40
2019-04-14T09:53:49.583Z,30.50
2019-04-14T09:56:18.852Z,30.97
2019-04-14T09:58:50.684Z,36.57
2019-04-14T10:01:19.922Z,32.50
2019-04-14T10:03:50.642Z,31.30
2019-04-14T10:06:22.109Z,31.00
2019-04-14T10:08:51.384Z,34.33
2019-04-14T10:11:20.707Z,35.03
2019-04-14T10:13:51.293Z,31.60
2019-04-14T10:16:20.536Z,31.47
2019-04-14T10:18:51.029Z,28.83
2019-04-14T10:21:20.248Z,27.83
2019-04-14T10:23:49.399Z,35.23
2019-04-14T10:26:18.653Z,32.10
2019-04-14T10:28:50.639Z,36.57
2019-04-14T10:31:18.852Z,37.50
2019-04-14T10:33:48.535Z,48.13
2019-04-14T10:36:17.766Z,33.03
2019-04-14T10:38:47.074Z,35.13
2019-04-14T10:41:16.356Z,31.43
2019-04-14T10:43:45.568Z,33.00
2019-04-14T10:46:14.791Z,34.33
2019-04-14T10:48:44.111Z,33.63
2019-04-14T10:51:29.143Z,28.63
2019-04-14T10:53:50.146Z,35.40
2019-04-14T10:56:21.342Z,43.17
2019-04-14T10:58:50.647Z,35.03
2019-04-14T11:01:19.978Z,37.50
2019-04-14T11:03:49.317Z,34.03
2019-04-14T11:06:26.075Z,28.67
2019-04-14T11:08:55.291Z,29.77
2019-04-14T11:11:24.611Z,31.83
2019-04-14T11:13:53.777Z,31.53
2019-04-14T11:16:23.099Z,30.07
2019-04-14T11:18:52.477Z,29.80
2019-04-14T11:21:21.810Z,36.90
2019-04-14T11:23:51.068Z,33.90
2019-04-14T11:26:20.358Z,31.67
2019-04-14T11:28:49.577Z,31.43
2019-04-14T11:31:20.482Z,30.37
2019-04-14T11:33:54.151Z,32.33
2019-04-14T11:36:27.726Z,34.67
2019-04-14T11:39:01.539Z,31.93
2019-04-14T11:41:30.865Z,31.50
2019-04-14T11:44:00.148Z,31.17
2019-04-14T11:46:29.488Z,27.63
2019-04-14T11:48:59.165Z,27.20
2019-04-14T11:51:28.662Z,32.00
2019-04-14T11:53:58.041Z,29.00
2019-04-14T11:56:27.326Z,27.97
2019-04-14T11:58:56.650Z,29.67
2019-04-14T12:01:39.292Z,36.53
2019-04-14T12:04:10.177Z,40.60
2019-04-14T12:06:57.028Z,36.63
2019-04-14T12:09:33.530Z,24.77
2019-04-14T12:12:03.349Z,23.83
2019-04-14T12:14:32.753Z,25.20
2019-04-14T12:17:02.327Z,21.93
2019-04-14T12:19:31.455Z,22.73
2019-04-14T12:22:08.056Z,22.03
2019-04-14T12:24:31.571Z,22.23
2019-04-14T12:27:00.858Z,22.13
2019-04-14T12:29:30.449Z,19.43
2019-04-14T12:32:01.792Z,27.80
2019-04-14T12:34:31.259Z,22.23
2019-04-14T12:37:00.451Z,23.93
2019-04-14T12:39:29.893Z,20.80
2019-04-14T12:42:00.929Z,21.40
2019-04-14T12:44:31.745Z,19.33
2019-04-14T12:47:20.562Z,21.13
2019-04-14T12:49:51.417Z,24.37
2019-04-14T12:52:24.915Z,22.10
2019-04-14T12:54:54.097Z,21.07
2019-04-14T12:57:25.222Z,21.47
2019-04-14T12:59:54.523Z,23.17
2019-04-14T13:02:25.530Z,23.40
2019-04-14T13:04:55.472Z,21.33
2019-04-14T13:07:24.943Z,24.03
2019-04-14T13:09:54.339Z,22.43
2019-04-14T13:12:23.599Z,24.37
2019-04-14T13:14:52.887Z,24.57
2019-04-14T13:17:23.666Z,23.40
2019-04-14T13:19:52.889Z,25.20
2019-04-14T13:22:33.302Z,28.10
2019-04-14T13:24:53.095Z,28.93
2019-04-14T13:27:23.363Z,28.60
2019-04-14T13:29:52.712Z,27.83
2019-04-14T13:32:22.052Z,26.80
2019-04-14T13:34:51.270Z,26.97
2019-04-14T13:37:20.568Z,25.60
2019-04-14T13:39:49.837Z,24.17
2019-04-14T13:42:19.030Z,28.17
2019-04-14T13:44:48.325Z,30.43
2019-04-14T13:47:17.675Z,26.43
2019-04-14T13:49:46.920Z,25.33
2019-04-14T13:52:16.084Z,24.73
2019-04-14T13:54:45.371Z,22.70
2019-04-14T13:57:14.606Z,23.90
2019-04-14T13:59:43.917Z,23.87
2019-04-14T14:02:13.237Z,22.80
2019-04-14T14:04:42.712Z,25.77
2019-04-14T14:07:12.005Z,38.20
2019-04-14T14:09:41.487Z,27.10
2019-04-14T14:12:30.679Z,25.30
2019-04-14T14:15:07.331Z,22.07
2019-04-14T14:17:40.937Z,22.60
2019-04-14T14:20:11.967Z,22.00
2019-04-14T14:22:42.934Z,24.33
2019-04-14T14:25:19.359Z,30.87
2019-04-14T14:27:48.556Z,29.30
2019-04-14T14:30:19.416Z,27.10
2019-04-14T14:32:48.664Z,28.03
2019-04-14T14:35:17.908Z,73.10
2019-04-14T14:37:47.135Z,27.10
2019-04-14T14:40:16.808Z,25.50
2019-04-14T14:42:46.123Z,24.43
2019-04-14T14:45:19.529Z,23.50
2019-04-14T14:48:06.426Z,21.73
2019-04-14T14:50:37.292Z,20.47
2019-04-14T14:53:12.311Z,21.77
2019-04-14T14:55:37.635Z,26.40
2019-04-14T14:58:06.895Z,23.60
2019-04-14T15:00:36.243Z,23.27
2019-04-14T15:03:05.680Z,20.97
2019-04-14T15:05:34.855Z,24.17
2019-04-14T15:08:04.250Z,22.47
2019-04-14T15:10:33.601Z,21.80
2019-04-14T15:13:02.834Z,23.40
2019-04-14T15:15:32.060Z,26.13
2019-04-14T15:18:01.374Z,26.67
2019-04-14T15:20:30.692Z,29.23
2019-04-14T15:22:59.905Z,28.20
2019-04-14T15:25:29.288Z,23.43
2019-04-14T15:27:58.526Z,24.77
2019-04-14T15:30:27.735Z,24.83
2019-04-14T15:32:56.989Z,23.63
2019-04-14T15:35:26.277Z,25.13
2019-04-14T15:37:55.623Z,25.73
2019-04-14T15:40:24.887Z,21.67
2019-04-14T15:42:54.101Z,28.47
2019-04-14T15:45:24.178Z,35.47
2019-04-14T15:47:53.467Z,30.97
2019-04-14T15:50:22.756Z,28.97
2019-04-14T15:52:51.977Z,22.40
2019-04-14T15:55:21.311Z,22.40
2019-04-14T15:57:54.894Z,21.90
2019-04-14T16:00:43.365Z,21.03
2019-04-14T16:03:22.844Z,17.73
2019-04-14T16:05:56.611Z,17.83
2019-04-14T16:08:30.350Z,24.00
2019-04-14T16:11:04.012Z,21.23
2019-04-14T16:13:51.045Z,20.07
2019-04-14T16:16:24.539Z,21.70
2019-04-14T16:18:58.205Z,24.87
2019-04-14T16:21:27.364Z,27.13
2019-04-14T16:23:56.632Z,32.73
2019-04-14T16:26:27.513Z,42.77
2019-04-14T16:29:02.612Z,31.83
2019-04-14T16:31:50.014Z,25.00
2019-04-14T16:34:29.876Z,22.40
2019-04-14T16:36:59.209Z,21.33
2019-04-14T16:39:28.440Z,19.63
2019-04-14T16:41:57.741Z,17.53
2019-04-14T16:44:27.499Z,19.27
2019-04-14T16:46:56.827Z,18.23
2019-04-14T16:49:26.044Z,17.63
2019-04-14T16:51:56.975Z,18.40
2019-04-14T16:54:39.816Z,17.47
2019-04-14T16:57:10.711Z,17.97
2019-04-14T16:59:40.024Z,20.77
2019-04-14T17:02:10.982Z,22.00
2019-04-14T17:04:40.371Z,20.47
2019-04-14T17:07:09.677Z,25.63
2019-04-14T17:09:39.015Z,21.00
2019-04-14T17:12:08.349Z,24.37
2019-04-14T17:14:39.237Z,21.73
2019-04-14T17:17:10.104Z,41.33
2019-04-14T17:19:40.981Z,28.70
2019-04-14T17:22:14.415Z,25.73
2019-04-14T17:25:01.499Z,22.40
2019-04-14T17:27:32.360Z,29.20
2019-04-14T17:30:03.230Z,26.83
2019-04-14T17:32:34.132Z,29.87
2019-04-14T17:35:20.035Z,26.97
2019-04-14T17:37:50.975Z,28.53
2019-04-14T17:40:27.843Z,24.13
2019-04-14T17:43:14.977Z,23.50
2019-04-14T17:45:54.638Z,23.53
2019-04-14T17:48:41.816Z,24.20
2019-04-14T17:51:24.500Z,26.93
2019-04-14T17:54:04.209Z,23.60
2019-04-14T17:56:37.604Z,26.40
2019-04-14T17:59:20.246Z,32.43
2019-04-14T18:01:53.920Z,32.27
2019-04-14T18:04:36.941Z,32.97
2019-04-14T18:07:07.773Z,33.43
2019-04-14T18:09:38.697Z,33.47
2019-04-14T18:12:09.623Z,35.53
2019-04-14T18:14:52.420Z,36.33
2019-04-14T18:17:29.246Z,34.10
2019-04-14T18:20:00.163Z,36.63
2019-04-14T18:22:29.432Z,32.27
2019-04-14T18:24:58.744Z,31.87
2019-04-14T18:27:28.034Z,34.53
2019-04-14T18:30:01.730Z,34.67
2019-04-14T18:32:35.198Z,33.33
2019-04-14T18:35:06.787Z,36.67
2019-04-14T18:37:53.707Z,37.43
2019-04-14T18:40:36.470Z,35.70
2019-04-14T18:43:13.382Z,33.00
2019-04-14T18:45:44.254Z,30.70
2019-04-14T18:48:31.098Z,33.67
2019-04-14T18:51:04.450Z,35.40
2019-04-14T18:53:43.962Z,39.50
2019-04-14T18:56:30.819Z,41.23
2019-04-14T18:59:01.747Z,34.93
2019-04-14T19:01:35.187Z,33.67
2019-04-14T19:04:04.450Z,33.23
2019-04-14T19:06:33.726Z,32.57
2019-04-14T19:09:02.951Z,31.27
2019-04-14T19:11:33.724Z,35.63
2019-04-14T19:14:04.120Z,45.80
2019-04-14T19:16:39.631Z,75.40
2019-04-14T19:19:10.205Z,69.10
2019-04-14T19:21:39.503Z,40.23
2019-04-14T19:24:08.759Z,31.97
2019-04-14T19:26:38.018Z,28.17
2019-04-14T19:29:07.183Z,26.77
2019-04-14T19:31:36.463Z,25.83
2019-04-14T19:34:05.914Z,25.57
2019-04-14T19:36:35.149Z,24.10
2019-04-14T19:39:08.223Z,27.60
2019-04-14T19:41:37.495Z,28.17
2019-04-14T19:44:06.801Z,25.13
2019-04-14T19:46:36.029Z,22.03
2019-04-14T19:49:05.422Z,20.50
2019-04-14T19:51:34.604Z,18.57
2019-04-14T19:54:03.907Z,26.60
2019-04-14T19:56:33.144Z,21.23
2019-04-14T19:59:02.593Z,19.10
2019-04-14T20:01:31.831Z,19.27
2019-04-14T20:04:01.117Z,19.63
2019-04-14T20:06:30.415Z,19.13
2019-04-14T20:08:59.753Z,22.40
2019-04-14T20:11:29.118Z,25.10
2019-04-14T20:13:58.411Z,19.60
2019-04-14T20:16:44.437Z,21.73
2019-04-14T20:19:15.322Z,20.37
2019-04-14T20:21:52.239Z,18.53
2019-04-14T20:24:29.485Z,16.57
2019-04-14T20:27:00.530Z,17.10
2019-04-14T20:29:37.136Z,21.57
2019-04-14T20:32:08.263Z,22.80
2019-04-14T20:34:37.699Z,25.10
2019-04-14T20:37:07.567Z,25.73
2019-04-14T20:39:37.018Z,25.93
2019-04-14T20:42:06.913Z,32.80
2019-04-14T20:44:36.524Z,30.10
2019-04-14T20:47:07.425Z,32.07
2019-04-14T20:49:36.863Z,35.03
2019-04-14T20:52:06.091Z,55.87
2019-04-14T20:54:35.445Z,34.27
2019-04-14T20:57:04.840Z,48.33
2019-04-14T20:59:33.970Z,44.00
2019-04-14T21:02:04.927Z,39.27
2019-04-14T21:04:38.450Z,31.30
2019-04-14T21:07:25.562Z,29.90
2019-04-14T21:09:56.341Z,26.90
2019-04-14T21:12:39.167Z,27.10
2019-04-14T21:15:26.348Z,34.40
2019-04-14T21:18:06.188Z,29.03
2019-04-14T21:20:46.395Z,27.90
2019-04-14T21:23:17.240Z,24.83
2019-04-14T21:25:59.583Z,34.17
2019-04-14T21:28:23.294Z,23.43
2019-04-14T21:30:59.846Z,36.33
2019-04-14T21:33:36.390Z,39.77
2019-04-14T21:36:22.105Z,31.60
2019-04-14T21:39:11.085Z,31.83
2019-04-14T21:41:41.957Z,33.10
2019-04-14T21:44:11.180Z,32.13
2019-04-14T21:46:40.370Z,33.60
2019-04-14T21:49:09.671Z,36.07
2019-04-14T21:51:52.237Z,30.63
2019-04-14T21:54:21.883Z,35.63
2019-04-14T21:57:08.919Z,36.37
2019-04-14T21:59:55.809Z,38.13
2019-04-14T22:02:42.909Z,35.57
2019-04-14T22:05:16.335Z,32.77
2019-04-14T22:07:59.317Z,32.93
2019-04-14T22:10:30.358Z,38.57
2019-04-14T22:12:59.604Z,31.60
2019-04-14T22:15:28.853Z,37.20
2019-04-14T22:17:58.269Z,37.90
2019-04-14T22:20:27.495Z,37.87
2019-04-14T22:22:57.160Z,39.57
2019-04-14T22:25:26.609Z,34.53
2019-04-14T22:27:56.141Z,34.20
2019-04-14T22:30:25.523Z,32.23
2019-04-14T22:32:54.691Z,28.33
2019-04-14T22:35:23.984Z,28.23
2019-04-14T22:37:55.151Z,29.90
2019-04-14T22:40:24.390Z,27.50
2019-04-14T22:42:53.671Z,22.87
2019-04-14T22:45:22.990Z,27.60
2019-04-14T22:47:52.144Z,24.07
2019-04-14T22:50:21.455Z,25.93
2019-04-14T22:52:50.702Z,22.63
2019-04-14T22:55:19.939Z,23.73
2019-04-14T22:57:51.242Z,24.27
2019-04-14T23:00:26.889Z,22.00
2019-04-14T23:02:57.779Z,18.90
2019-04-14T23:05:44.646Z,22.30
2019-04-14T23:08:37.851Z,23.87
2019-04-14T23:11:24.708Z,21.13
2019-04-14T23:14:04.665Z,17.47
2019-04-14T23:16:50.292Z,22.67
2019-04-14T23:19:21.241Z,21.33
2019-04-14T23:22:01.122Z,18.60
2019-04-14T23:24:31.896Z,22.37
2019-04-14T23:27:01.119Z,20.00
2019-04-14T23:29:30.474Z,20.40
2019-04-14T23:32:00.195Z,25.17
2019-04-14T23:34:29.457Z,22.73
2019-04-14T23:36:58.650Z,22.27
2019-04-14T23:39:27.858Z,21.27
2019-04-14T23:41:57.142Z,21.23
2019-04-14T23:44:26.255Z,19.77
2019-04-14T23:46:55.428Z,17.40
2019-04-14T23:49:24.658Z,19.23
2019-04-14T23:51:53.862Z,19.47
2019-04-14T23:54:23.070Z,19.00
2019-04-14T23:57:04.438Z,17.87
2019-04-14T23:59:23.113Z,15.77
